PAKWPASI

Guest
Details From PAKW - Klawock
To PASI - Sitka Rocky Gutierrez
Flight Number -
Tags Generated
Created
Modified
Stats Distance 117 nm / 217 km
Max Altitude 0 ft / 0 m
Waypoints 2
Social Downloads 1
Likes 0
Share VATSIM

Download

Looking for another format? Having issues loading an existing format? Contact us
Advertisement - Login to hide

Notes

Generated

Route

PAKW PASI

ID Type Via Altitude Latitude Longitude Leg Dist Tot Dist Heading (true) Name
O PAKW APT - 0 ft / 0 m 55.57392˚ -133.08362˚ - 0 nm - -
O PASI APT - 0 ft / 0 m 57.05347˚ -135.37303˚ 117 nm 117 nm 320° / 318° -

Altitude Profile

Advertisement - Login to hide

PAKW

Details ICAO PAKW (KLW)
Name KLAWOCK
Region USA (Alaska)
Timezone Unknown (UTC+0.0)
Stats Elevation 80 ft / 24 m (AMSL)
Location 55.579232° -133.075997°
Runways 1
Magnetic Variation 18.547° E

METAR

PAKW 160153Z AUTO 19005KT 10SM FEW028 BKN035 BKN042 04/04 A3008 RMK AO2 SLP187 T00440039 TSNO

Decode

TAF

PAKW 152342Z 1600/1624 18008KT P6SM -SHRA SCT020 OVC035 FM160600 12008KT 6SM -RA BR BKN025 OVC050 FM161400 14010G18KT 4SM RA BR BKN008 OVC015 FM162000 19011KT 3SM RA BR BKN012 OVC020 AMD LTD TO CLD VIS AND WIND

Decode

Departure Runways

ID Width Length Bearing (true) Bearing (mag) Surface Threshold Offset Overrun Length
02 100 ft / 30 m 4,991 ft / 1,521 m 39.06° 20.51° Asphalt 0 ft / 0 m 0 ft / 0 m
20 100 ft / 30 m 4,991 ft / 1,521 m 219.07° 200.52° Asphalt 0 ft / 0 m 0 ft / 0 m

PASI

Details ICAO PASI (SIT)
Name SITKA ROCKY GUTIERREZ
Region USA (Alaska)
Timezone America/Juneau (UTC-9.0)
Stats Elevation 21 ft / 6 m (AMSL)
Location 57.047128° -135.361597°
Runways 1
Magnetic Variation 18.750° E

METAR

PASI 160153Z 11009KT 10SM BKN029 OVC033 05/02 A3000

Decode

TAF

PASI 152342Z 1600/1624 10008KT P6SM BKN035 OVC050 FM160600 12015G25KT P6SM -RA BKN030 OVC050 FM161000 12020G30KT 6SM -RA BR SCT015 OVC025 FM161500 14018G28KT 4SM RA BR BKN008 OVC015 FM162000 20012KT 6SM -RA SCT010 OVC020

Decode

Destination Runways

ID Width Length Bearing (true) Bearing (mag) Surface Threshold Offset Overrun Length
11 150 ft / 46 m 6,485 ft / 1,977 m 135.57° 116.82° Asphalt 0 ft / 0 m 0 ft / 0 m
29 150 ft / 46 m 6,485 ft / 1,977 m 315.59° 296.84° Asphalt 0 ft / 0 m 0 ft / 0 m

Approach Navaids

Runway Type Ident Frequency Range Bearing (true) Bearing (mag) Slope Elevation
11 Localiser ISIT 108.90 MHz 18 nm / 33 km 143.51° 124.76° - 15 ft / 5 m (AMSL)
11 DME ISIT 108.90 MHz 18 nm / 33 km - - - 34 ft / 10 m (AMSL)